CYXX

Abbotsford Airport

Abbotsford, , Canada
METAR CYXX 151344Z 00000KT 15SM SCT057 OVC140 03/03 A3015 RMK SC3AC5 SLP214
Observed Flight Rules
Dec-15 @ 13:44 UTC (20 minutes ago) Visual Flight Rules
Wind Visibility Clouds
Calm 15 miles
  • Scattered at 5,700' AGL
  • Overcast at 14,000' AGL
Temperatures Readings
Current 3°C / 37°F
Dewpoint 3°C / 37°F
Humidity 100%
Altimeter 30.15" Hg
Pressure 1021.4 hPa
Elevation 58
METAR CYXX 151344Z 00000KT 15SM SCT057 OVC140 03/03 A3015 RMK SC3AC5 SLP214
Observed Flight Rules
Dec-15 @ 13:44 UTC
(20 minutes ago)
VFR
Wind Visibility
Calm 15 miles
Clouds
  • Scattered at 5,700' AGL
  • Overcast at 14,000' AGL
Temperature Dewpoint
3°C / 37°F 3°C / 37°F
Humidity Altimeter Pressure
100% 30.15" Hg 1021.4 hPa